Stations météo

Publicité
Nimes/Courbessac, France (7645): Température de l'air & dewpoint: 14.08.2019 14:00:00 - 20.08.2019 14:00:00 (CEST)Nimes/Courbessac, France (7645): Température de l'air 5cm: 14.08.2019 14:00:00 - 20.08.2019 14:00:00 (CEST)Nimes/Courbessac, France (7645): Température de l'air -20cm: 14.08.2019 14:00:00 - 20.08.2019 14:00:00 (CEST)Nimes/Courbessac, France (7645): Vitesse du vent & gusts: 14.08.2019 14:00:00 - 20.08.2019 14:00:00 (CEST)Nimes/Courbessac, France (7645): Direction du vent: 14.08.2019 14:00:00 - 20.08.2019 14:00:00 (CEST)Nimes/Courbessac, France (7645): reduced air pressure: 14.08.2019 14:00:00 - 20.08.2019 14:00:00 (CEST)Nimes/Courbessac, France (7645): Ensoleillement: 14.08.2019 14:00:00 - 20.08.2019 14:00:00 (CEST)Nimes/Courbessac, France (7645): Quantités de précipitations: 14.08.2019 14:00:00 - 20.08.2019 14:00:00 (CEST)
Date & Time tt [°C] td [°C] tt 5cm [°C] tt -20cm [°C] ff [km/h] ff [knt] fx [km/h] fx [knt] dd ppp [hPa] sd [min] rr [mm]
20.08.2019 14:00:00 22,6 13,1 - - 15 8 37 20 NW 1020,3 - -
20.08.2019 13:00:00 23,1 13,0 25,6 28,1 15 8 36 20 NW 1020,1 0 0,0
20.08.2019 12:00:00 23,5 13,1 24,8 28,1 17 9 34 19 NNW 1019,8 23 0,0
20.08.2019 11:00:00 22,6 13,1 23,2 28,2 12 7 32 17 N 1019,7 5 0,0
20.08.2019 10:00:00 21,2 12,3 21,1 28,3 13 7 26 14 NNW 1019,4 3 0,0
20.08.2019 09:00:00 20,0 12,0 19,7 28,5 9 5 25 13 NNW 1018,8 0 0,0
20.08.2019 08:00:00 19,2 12,7 18,9 28,7 6 4 22 12 N 1018,3 0 0,0
20.08.2019 07:00:00 19,2 12,9 18,9 28,9 11 6 21 11 NNW 1017,7 0 0,0
20.08.2019 06:00:00 19,5 13,0 18,3 29,0 10 6 41 22 NNW 1017,2 0 0,0
20.08.2019 05:00:00 21,0 12,2 21,0 29,2 19 10 36 19 NW 1017,6 0 0,0
20.08.2019 04:00:00 21,6 11,6 21,5 29,3 13 7 29 16 NW 1017,4 0 0,0
20.08.2019 03:00:00 21,7 12,0 21,5 29,5 14 7 34 19 NW 1017,9 0 0,0
20.08.2019 02:00:00 21,7 12,8 21,5 29,7 13 7 34 19 NW 1017,8 0 0,0
20.08.2019 01:00:00 21,6 13,8 21,2 29,8 11 6 22 12 NNW 1017,9 0 0,0
20.08.2019 00:00:00 21,5 14,2 21,3 29,9 7 4 31 17 N 1018,4 0 0,0
19.08.2019 23:00:00 22,0 15,1 21,8 30,0 4 2 23 12 NNE 1018,6 0 0,0
19.08.2019 22:00:00 22,5 16,1 20,7 30,0 12 6 23 13 N 1017,4 0 0,0
19.08.2019 21:00:00 24,6 17,3 23,1 29,9 13 7 21 11 N 1016,9 0 0,0
19.08.2019 20:00:00 26,8 19,7 26,9 29,9 10 6 18 10 S 1016,6 0 0,0
19.08.2019 19:00:00 27,6 19,7 28,2 29,8 9 5 16 9 S 1016,0 0 0,0
19.08.2019 18:00:00 28,3 19,5 30,1 29,6 7 4 14 8 SSE 1016,0 11 0,0
19.08.2019 17:00:00 28,3 19,2 29,6 29,5 6 3 14 7 S 1016,0 0 0,0
19.08.2019 16:00:00 27,8 19,3 29,4 29,3 8 4 14 8 WSW 1016,3 0 0,0
19.08.2019 15:00:00 28,1 19,1 30,5 29,1 4 2 20 11 WNW 1016,5 0 0,0
19.08.2019 14:00:00 27,7 18,7 31,2 29,0 8 4 15 8 W 1016,4 4 0,0
19.08.2019 13:00:00 28,2 18,3 32,4 29,0 4 2 14 8 SW 1016,4 28 0,0
19.08.2019 12:00:00 26,5 18,9 28,5 29,0 4 2 14 8 SW 1016,5 7 0,0
19.08.2019 11:00:00 24,8 19,6 22,4 29,1 5 3 11 6 NNE 1016,7 2 0,0
19.08.2019 10:00:00 22,9 20,1 21,7 29,2 5 3 15 8 NNE 1016,7 0 0,0
19.08.2019 09:00:00 22,4 19,2 22,5 29,4 8 4 15 8 NNE 1016,5 0 0,0
19.08.2019 08:00:00 21,7 19,3 21,4 29,6 9 5 13 7 NE 1016,1 0 0,0
19.08.2019 07:00:00 21,3 19,6 21,1 29,7 7 4 13 7 ENE 1015,7 0 0,0
19.08.2019 06:00:00 21,1 19,6 20,4 29,9 2 1 8 4 NNW 1015,4 0 0,0
19.08.2019 05:00:00 21,0 19,6 20,0 30,1 2 1 10 5 NNW 1015,5 0 0,0
19.08.2019 04:00:00 20,9 18,5 20,2 30,3 0 0 6 4 N 1015,9 0 0,0
19.08.2019 03:00:00 21,2 19,3 20,0 30,4 0 0 8 4 N 1015,7 0 0,0
19.08.2019 02:00:00 21,1 19,2 20,1 30,6 0 0 4 2 N 1015,8 0 0,0
19.08.2019 01:00:00 22,0 19,5 21,4 30,7 4 2 6 4 ENE 1016,0 0 0,0
19.08.2019 00:00:00 22,3 20,0 21,8 30,8 4 2 10 5 E 1015,9 0 0,0
18.08.2019 23:00:00 22,5 19,9 21,9 30,9 5 3 16 8 SSE 1015,3 0 0,0
18.08.2019 22:00:00 23,1 19,3 22,8 31,0 10 5 21 12 S 1015,2 0 0,0
18.08.2019 21:00:00 23,8 18,7 23,5 31,0 12 7 22 12 S 1013,9 7 0,0
18.08.2019 20:00:00 25,2 16,3 25,6 30,9 16 8 32 17 SSE 1013,8 34 0,0
18.08.2019 19:00:00 27,3 16,3 31,3 30,7 17 9 29 16 SE 1013,9 60 0,0
18.08.2019 18:00:00 28,6 16,2 33,4 30,4 18 10 35 19 S 1013,9 60 0,0
18.08.2019 17:00:00 29,5 17,3 34,9 30,1 19 10 40 22 SSE 1013,9 60 0,0
18.08.2019 16:00:00 29,2 18,6 32,4 29,8 21 11 35 19 SE 1014,2 50 0,0
18.08.2019 15:00:00 30,1 18,2 33,3 29,5 16 8 32 17 SE 1014,4 47 0,0
18.08.2019 14:00:00 29,8 18,9 32,7 29,3 19 11 35 19 SSE 1014,5 43 0,0
18.08.2019 13:00:00 29,3 18,4 30,6 29,2 23 13 38 21 SE 1014,7 47 0,0
18.08.2019 12:00:00 28,0 19,2 27,3 29,2 24 13 41 22 SE 1014,8 30 0,0
18.08.2019 11:00:00 26,4 19,8 27,2 29,2 21 11 35 19 ESE 1014,7 23 0,0
18.08.2019 10:00:00 25,3 20,1 24,4 29,3 21 11 35 19 ESE 1014,6 23 0,0
18.08.2019 09:00:00 23,1 20,1 22,5 29,5 9 5 15 8 E 1014,7 1 0,0
18.08.2019 08:00:00 22,0 20,1 21,9 29,6 8 4 11 6 E 1014,4 0 0,0
18.08.2019 07:00:00 21,9 20,4 21,9 29,7 8 4 14 8 E 1014,1 0 0,0
18.08.2019 06:00:00 22,0 20,6 21,9 29,9 11 6 16 9 ESE 1014,1 0 0,0
18.08.2019 05:00:00 21,8 20,8 21,1 30,1 5 3 13 7 E 1014,4 0 0,0
18.08.2019 04:00:00 21,4 20,6 20,5 30,2 5 3 9 5 ENE 1014,8 0 0,0
18.08.2019 03:00:00 21,9 20,5 21,3 30,4 5 3 8 4 E 1015,2 0 0,0
18.08.2019 02:00:00 21,9 20,9 21,0 30,5 2 1 9 5 NNE 1015,5 0 0,0
18.08.2019 01:00:00 22,4 21,0 21,7 30,7 6 4 13 7 ENE 1015,8 0 0,0
18.08.2019 00:00:00 22,8 21,1 22,3 30,7 3 1 9 5 ESE 1015,6 0 0,0
17.08.2019 23:00:00 23,2 21,1 22,6 30,8 6 3 16 9 SE 1015,4 0 0,0
17.08.2019 22:00:00 24,3 21,0 24,4 30,8 11 6 22 12 SSE 1015,3 0 0,0
17.08.2019 21:00:00 24,4 20,7 24,4 30,8 11 6 22 12 SSE 1014,7 21 0,0
17.08.2019 20:00:00 26,2 18,8 27,3 30,6 13 7 25 14 SE 1014,5 60 0,0
17.08.2019 19:00:00 29,1 15,6 32,8 30,4 18 10 28 15 SE 1014,2 60 0,0
17.08.2019 18:00:00 30,4 14,5 35,5 30,0 17 9 29 16 SE 1014,3 60 0,0
17.08.2019 17:00:00 30,3 16,7 35,7 29,7 14 8 32 17 SE 1014,5 60 0,0
17.08.2019 16:00:00 29,8 17,9 36,1 29,3 18 10 30 16 SSE 1014,9 60 0,0
17.08.2019 15:00:00 29,7 17,2 34,5 29,0 18 10 30 16 SSE 1015,4 60 0,0
17.08.2019 14:00:00 28,2 16,8 31,4 28,7 14 8 26 14 SE 1015,8 47 0,0
17.08.2019 13:00:00 28,9 16,8 32,2 28,5 13 7 24 13 SE 1016,1 54 0,0
17.08.2019 12:00:00 27,4 16,4 30,9 28,4 11 6 21 12 E 1016,3 49 0,0
17.08.2019 11:00:00 25,9 17,0 29,0 28,4 4 2 13 7 SSE 1016,5 60 0,0
17.08.2019 10:00:00 23,5 17,0 26,7 28,5 6 3 11 6 SE 1016,5 60 0,0
17.08.2019 09:00:00 22,0 16,9 17,9 28,8 2 1 9 5 NE 1016,4 46 0,0
17.08.2019 08:00:00 17,3 15,5 15,7 29,0 8 4 11 6 WNW 1016,3 1 0,0
17.08.2019 07:00:00 16,3 14,5 15,7 29,2 5 3 12 6 WNW 1016,4 0 0,0
17.08.2019 06:00:00 16,6 14,8 15,7 29,5 8 4 10 5 WNW 1016,2 0 0,0
17.08.2019 05:00:00 16,6 14,1 15,6 29,7 4 2 7 4 WNW 1016,3 0 0,0
17.08.2019 04:00:00 16,8 13,7 15,1 30,0 3 2 5 3 NW 1016,2 0 0,0
17.08.2019 03:00:00 17,5 13,8 16,3 30,2 3 2 7 4 NW 1016,3 0 0,0
17.08.2019 02:00:00 17,7 13,0 15,9 30,4 2 1 6 3 NNW 1016,1 0 0,0
17.08.2019 01:00:00 17,9 11,7 16,6 30,6 0 0 6 3 N 1016,4 0 0,0
17.08.2019 00:00:00 18,8 11,8 17,2 30,8 0 0 9 5 N 1016,3 0 0,0
16.08.2019 23:00:00 20,8 12,0 19,6 30,9 7 4 15 8 NNE 1016,1 0 0,0
16.08.2019 22:00:00 22,9 13,1 21,9 30,9 8 5 14 8 S 1015,8 0 0,0
16.08.2019 21:00:00 24,6 11,2 23,5 30,8 7 4 27 14 SSE 1015,2 20 0,0
16.08.2019 20:00:00 26,6 13,0 27,1 30,7 15 8 30 16 S 1014,7 55 0,0
16.08.2019 19:00:00 29,6 10,2 30,8 30,4 15 8 25 14 SSE 1014,1 40 0,0
16.08.2019 18:00:00 31,4 10,7 32,2 30,0 18 10 32 17 SSE 1014,2 48 0,0
16.08.2019 17:00:00 33,0 9,7 38,2 29,6 16 8 33 18 E 1014,3 60 0,0
16.08.2019 16:00:00 33,3 7,3 39,2 29,2 8 4 21 11 E 1014,7 60 0,0
16.08.2019 15:00:00 33,0 6,3 37,0 28,8 9 5 20 11 NNE 1015,2 58 0,0
16.08.2019 14:00:00 30,9 6,7 36,6 28,5 10 5 24 13 NNW 1015,6 60 0,0
16.08.2019 13:00:00 29,7 8,1 34,0 28,3 10 5 27 15 NNW 1016,2 60 0,0
16.08.2019 12:00:00 27,7 8,5 30,9 28,3 13 7 31 17 WNW 1017,0 60 0,0
16.08.2019 11:00:00 25,9 9,7 27,1 28,3 15 8 33 18 NW 1017,5 58 0,0
16.08.2019 10:00:00 24,0 9,9 25,3 28,5 18 10 45 25 NW 1017,7 60 0,0
16.08.2019 09:00:00 22,2 10,0 22,1 28,7 23 13 42 23 NW 1017,4 60 0,0
16.08.2019 08:00:00 20,6 10,1 18,8 28,9 17 9 34 18 NW 1017,4 49 0,0
16.08.2019 07:00:00 19,5 10,2 18,3 29,1 11 6 29 16 NW 1017,4 0 0,0
16.08.2019 06:00:00 19,6 10,0 18,8 29,3 12 7 35 19 NW 1017,5 0 0,0
16.08.2019 05:00:00 20,1 10,2 19,2 29,5 13 7 28 15 WNW 1018,0 0 0,0
16.08.2019 04:00:00 21,0 10,2 20,3 29,8 12 7 29 15 WNW 1018,3 0 0,0
16.08.2019 03:00:00 21,3 10,1 20,2 30,0 12 7 27 15 NW 1018,3 0 0,0
16.08.2019 02:00:00 21,4 10,2 19,8 30,2 8 4 17 9 NW 1018,4 0 0,0
16.08.2019 01:00:00 21,2 10,7 18,8 30,4 5 3 9 5 W 1018,7 0 0,0
16.08.2019 00:00:00 22,5 10,6 21,2 30,5 2 1 19 10 WNW 1018,4 0 0,0
15.08.2019 23:00:00 23,7 11,1 22,4 30,6 8 4 15 8 WNW 1018,1 0 0,0
15.08.2019 22:00:00 24,7 10,9 23,6 30,6 7 4 24 13 NW 1017,7 0 0,0
15.08.2019 21:00:00 26,1 10,7 25,6 30,6 16 8 40 22 W 1016,4 24 0,0
15.08.2019 20:00:00 28,1 11,2 28,4 30,4 18 10 47 26 W 1015,8 60 0,0
15.08.2019 19:00:00 29,8 11,3 32,7 30,3 18 10 41 22 WSW 1015,0 60 0,0
15.08.2019 18:00:00 30,0 11,5 34,1 29,9 18 10 38 20 WSW 1015,1 60 0,0
15.08.2019 17:00:00 30,5 11,0 35,0 29,6 19 10 38 21 WNW 1015,4 60 0,0
15.08.2019 16:00:00 29,6 10,7 34,6 29,3 20 11 45 24 W 1015,8 60 0,0
15.08.2019 15:00:00 29,9 11,4 34,9 29,0 20 11 45 25 W 1015,9 60 0,0
15.08.2019 14:00:00 29,5 11,5 32,0 28,7 21 12 47 26 W 1016,2 43 0,0
15.08.2019 13:00:00 28,9 12,7 29,9 28,5 21 11 42 23 W 1016,6 56 0,0
15.08.2019 12:00:00 28,6 13,3 32,3 28,4 16 9 37 20 WSW 1017,0 60 0,0
15.08.2019 11:00:00 27,5 13,4 30,7 28,4 16 9 40 21 WNW 1016,9 54 0,0
15.08.2019 10:00:00 27,2 11,6 29,1 28,4 11 6 24 13 W 1016,9 60 0,0
15.08.2019 09:00:00 25,1 11,6 24,1 28,7 6 3 23 12 WSW 1017,1 60 0,0
15.08.2019 08:00:00 21,8 9,7 16,8 28,9 0 0 13 7 N 1016,8 34 0,0
15.08.2019 07:00:00 18,8 9,0 15,5 29,1 6 3 11 6 WNW 1016,6 0 0,0
15.08.2019 06:00:00 18,5 7,9 16,5 29,3 2 1 7 4 E 1016,8 0 0,0
15.08.2019 05:00:00 20,5 7,8 19,6 29,5 5 3 16 9 NW 1016,7 0 0,0
15.08.2019 04:00:00 20,9 7,5 20,0 29,7 10 5 20 11 NW 1016,9 0 0,0
15.08.2019 03:00:00 21,5 7,7 20,5 29,9 10 6 18 10 WNW 1016,8 0 0,0
15.08.2019 02:00:00 21,7 6,8 20,7 30,1 10 5 17 9 NW 1016,8 0 0,0
15.08.2019 01:00:00 22,2 6,8 21,1 30,3 8 4 19 10 NW 1016,8 0 0,0
15.08.2019 00:00:00 22,7 6,4 21,7 30,4 7 4 24 13 NW 1016,5 0 0,0
14.08.2019 23:00:00 22,9 6,2 21,2 30,5 5 3 13 7 WNW 1016,1 0 0,0
14.08.2019 22:00:00 24,3 6,1 22,9 30,5 8 4 14 8 NNW 1015,9 0 0,0
14.08.2019 21:00:00 26,0 6,1 24,8 30,4 10 5 22 12 N 1014,9 26 0,0
14.08.2019 20:00:00 29,4 6,1 30,0 30,3 11 6 22 12 N 1014,3 60 0,0
14.08.2019 19:00:00 31,5 5,1 34,6 30,0 11 6 28 15 N 1013,7 60 0,0
14.08.2019 18:00:00 32,4 3,3 37,3 29,7 13 7 29 15 NW 1013,5 60 0,0
14.08.2019 17:00:00 31,4 3,4 36,9 29,3 18 10 35 19 NW 1014,0 60 0,0
14.08.2019 16:00:00 31,3 2,5 37,1 28,9 9 5 34 19 NW 1014,4 60 0,0
14.08.2019 15:00:00 30,2 2,4 35,4 28,6 16 9 42 23 NW 1015,0 60 0,0
14.08.2019 14:00:00 29,0 3,8 33,6 28,3 19 10 40 22 WNW 1015,7 60 0,0

tt = Température de l'air
td = dewpoint
tt 5cm = Température de l'air 5cm
tt -20cm = Température de l'air -20cm
ff = Vitesse du vent
fx = gusts
dd = Direction du vent
ppp = reduced air pressure
sd = Ensoleillement
rr = Quantités de précipitations

stations d'obs. à proximité